Fort Richardson, Alaska
Current Conditions -  °F | °C
As of 9:25 PM on Friday 24 Oct 2014 (Local Time) from PAED Reporting Station
Light Snow Light Snow  
Wind Chill: 32°   Ceiling: 2000
Heat Index: 32°   Visibility: 5mi
Dew Point: 27°   Wind: 0mph
Humidity: 80%   Direction: NA
Pressure: 29.89"   Gusts: NA
Location:  61.25°N, 149.69°W
Report Text: PAED 250525Z 00000KT 5SM -SN BKN020 BKN026 OVC085 00/M03 A2989 RMK AO2A SNB0501RAB0503E0506 CIG 020V090 $
Loading
Personal Weather Stations






























Interactive Weather Map
Tropical Storm Tracking
New forecast layout! Learn more

10-Day Weather Forecast

Advertisements
Track Severe Weather on mobile